Time;durP1;ratioP1;P1;durP2;ratioP2;P2;SDS_P1;SDS_P2;PMS_P1;PMS_P2;Temp;Humidity;BMP_temperature;BMP_pressure;BME280_temperature;BME280_humidity;BME280_pressure;Samples;Min_cycle;Max_cycle;Signal;HPM_P1;HPM_P2
2022/05/27 00:01:16;;;;;;;9.32;2.88;;;14.70;99.90;;;;;;4973237;28;20034;-31
2022/05/27 00:03:41;;;;;;;;;;;14.60;99.90;;;;;;4972611;28;20562;-42
2022/05/27 00:06:07;;;;;;;6.45;2.50;;;14.40;99.90;;;;;;4973619;28;19906;-29
2022/05/27 00:08:34;;;;;;;3.42;1.40;;;14.40;99.90;;;;;;4972793;28;20034;-28
2022/05/27 00:11:00;;;;;;;3.85;1.35;;;14.30;99.90;;;;;;4974618;28;20023;-30
2022/05/27 00:13:28;;;;;;;4.30;1.27;;;14.20;99.90;;;;;;4972692;28;20047;-35
2022/05/27 00:15:53;;;;;;;7.45;2.33;;;14.20;99.90;;;;;;4974458;28;20434;-39
2022/05/27 00:18:19;;;;;;;6.45;1.83;;;14.10;99.90;;;;;;4971079;28;20121;-34
2022/05/27 00:20:45;;;;;;;3.55;1.30;;;14.10;99.90;;;;;;4962628;28;20030;-28
2022/05/27 00:23:11;;;;;;;5.15;1.20;;;14.10;99.90;;;;;;4972570;28;20023;-32
2022/05/27 00:25:37;;;;;;;3.83;1.35;;;14.10;99.90;;;;;;4971998;28;20034;-30
2022/05/27 00:28:03;;;;;;;8.10;1.88;;;14.20;99.90;;;;;;4974603;28;20038;-30
2022/05/27 00:30:29;;;;;;;8.73;1.90;;;14.10;99.90;;;;;;4971345;28;20027;-32
2022/05/27 00:32:55;;;;;;;5.22;2.10;;;14.20;99.90;;;;;;4973632;28;20090;-29
2022/05/27 00:35:21;;;;;;;8.00;2.90;;;14.20;99.90;;;;;;4972512;28;20041;-30
2022/05/27 00:37:46;;;;;;;16.20;2.95;;;14.20;99.90;;;;;;4972484;28;20026;-29
2022/05/27 00:40:13;;;;;;;9.60;2.72;;;14.30;99.90;;;;;;4970503;28;20018;-32
2022/05/27 00:42:40;;;;;;;9.65;2.45;;;14.30;99.90;;;;;;4974423;28;20023;-29
2022/05/27 00:45:10;;;;;;;7.53;2.40;;;14.30;99.90;;;;;;4974057;28;20422;-29
2022/05/27 00:47:39;;;;;;;13.82;3.78;;;14.30;99.90;;;;;;4970468;28;20497;-36
2022/05/27 00:50:09;;;;;;;15.90;3.33;;;14.40;99.90;;;;;;4972643;28;20479;-29
2022/05/27 00:52:37;;;;;;;13.55;2.92;;;14.40;99.90;;;;;;4971836;28;20066;-35
2022/05/27 00:55:06;;;;;;;16.23;3.63;;;14.40;99.90;;;;;;4971552;28;20041;-31
2022/05/27 00:57:38;;;;;;;19.58;3.83;;;14.30;99.90;;;;;;4971696;28;20506;-36
2022/05/27 01:00:07;;;;;;;22.98;5.13;;;14.40;99.90;;;;;;4971726;28;20062;-33
2022/05/27 01:02:34;;;;;;;15.18;3.42;;;14.30;99.90;;;;;;4974206;28;20022;-33
2022/05/27 01:05:02;;;;;;;9.83;2.13;;;14.30;99.90;;;;;;4974297;28;20026;-31
2022/05/27 01:07:28;;;;;;;16.55;3.25;;;14.30;99.90;;;;;;4972484;28;20475;-31
2022/05/27 01:09:54;;;;;;;22.25;3.55;;;14.30;99.90;;;;;;4969930;28;20026;-30
2022/05/27 01:12:38;;;;;;;17.08;3.97;;;14.30;99.90;;;;;;4971050;28;20035;-30
2022/05/27 01:15:27;;;;;;;15.95;3.33;;;14.30;99.90;;;;;;4972969;28;20019;-31
2022/05/27 01:20:18;;;;;;;9.80;2.90;;;14.40;99.90;;;;;;4960849;28;20031;-30
2022/05/27 01:21:31;;;;;;;15.88;2.83;;;14.40;99.90;;;;;;4971704;28;20034;-29
2022/05/27 01:24:25;;;;;;;17.13;2.67;;;14.50;99.90;;;;;;4972626;28;20022;-31
2022/05/27 01:27:01;;;;;;;8.23;2.42;;;14.40;99.90;;;;;;4976580;28;20038;-32
2022/05/27 01:30:04;;;;;;;15.90;2.17;;;14.40;99.90;;;;;;4974522;28;20105;-31
2022/05/27 01:32:48;;;;;;;13.25;2.35;;;14.40;99.90;;;;;;4977164;28;20364;-32
2022/05/27 01:35:22;;;;;;;8.90;1.60;;;14.50;99.90;;;;;;4975324;28;20038;-34
2022/05/27 01:37:50;;;;;;;11.82;2.35;;;14.40;99.90;;;;;;4975933;28;20031;-31
2022/05/27 01:40:37;;;;;;;14.35;1.60;;;14.40;99.90;;;;;;4977266;28;20019;-33
2022/05/27 01:43:15;;;;;;;8.55;1.52;;;14.40;99.90;;;;;;4976893;28;20030;-30
2022/05/27 01:46:05;;;;;;;3.88;1.50;;;14.40;99.90;;;;;;4975327;28;20035;-31
2022/05/27 01:48:34;;;;;;;13.88;1.77;;;14.40;99.90;;;;;;4975534;28;20038;-34
2022/05/27 01:51:08;;;;;;;3.00;1.40;;;14.30;99.90;;;;;;4974669;28;20045;-29
2022/05/27 01:53:47;;;;;;;5.07;1.75;;;14.40;99.90;;;;;;4977298;28;20031;-36
2022/05/27 01:56:34;;;;;;;5.50;1.80;;;14.40;99.90;;;;;;4974681;28;20027;-31
2022/05/27 01:59:11;;;;;;;8.05;1.70;;;14.40;99.90;;;;;;4976372;28;20399;-33
2022/05/27 02:01:41;;;;;;;;;;;14.30;99.90;;;;;;4977923;28;20015;-30
2022/05/27 02:04:16;;;;;;;4.20;1.60;;;14.30;99.90;;;;;;4977156;28;19981;-38
2022/05/27 02:07:13;;;;;;;4.93;2.00;;;14.30;99.90;;;;;;4971069;28;20061;-35
2022/05/27 02:09:59;;;;;;;5.55;1.63;;;14.30;99.90;;;;;;4963525;28;20530;-32
2022/05/27 02:12:40;;;;;;;9.77;2.08;;;14.20;99.90;;;;;;4973834;28;20029;-31
2022/05/27 02:15:14;;;;;;;11.77;1.88;;;14.20;99.90;;;;;;4971994;28;20030;-31
2022/05/27 02:17:45;;;;;;;10.65;2.63;;;14.20;99.90;;;;;;4974632;28;20030;-28
2022/05/27 02:20:16;;;;;;;7.80;2.13;;;14.10;99.90;;;;;;4974738;28;20065;-31
2022/05/27 02:22:48;;;;;;;12.57;2.30;;;14.10;99.90;;;;;;4976843;28;20533;-32
2022/05/27 02:25:28;;;;;;;11.07;2.05;;;14.00;99.90;;;;;;4974961;28;20105;-37
2022/05/27 02:27:57;;;;;;;10.95;2.60;;;14.00;99.90;;;;;;4973745;28;20039;-30
2022/05/27 02:30:29;;;;;;;12.95;2.40;;;14.00;99.90;;;;;;4971924;28;20030;-29
2022/05/27 02:35:57;;;;;;;15.43;2.70;;;14.00;99.90;;;;;;4974552;28;20054;-33
2022/05/27 02:38:23;;;;;;;9.50;2.30;;;14.00;99.90;;;;;;4972500;28;20037;-34
2022/05/27 02:41:09;;;;;;;7.45;2.83;;;14.00;99.90;;;;;;4976131;28;20527;-32
2022/05/27 02:44:16;;;;;;;17.05;2.78;;;14.10;99.90;;;;;;4975584;28;20050;-31
2022/05/27 02:46:48;;;;;;;11.45;2.83;;;14.00;99.90;;;;;;4970393;28;20455;-33
2022/05/27 02:49:29;;;;;;;9.60;2.65;;;14.00;99.90;;;;;;4975525;28;20022;-33
2022/05/27 02:52:16;;;;;;;9.77;2.85;;;14.00;99.90;;;;;;4975631;28;20089;-34
2022/05/27 02:55:14;;;;;;;6.72;2.50;;;14.00;99.90;;;;;;4975401;28;20483;-32
2022/05/27 02:57:44;;;;;;;10.68;3.30;;;14.10;99.90;;;;;;4973776;28;20037;-31
2022/05/27 03:00:22;;;;;;;12.50;2.55;;;14.10;99.90;;;;;;4972980;28;20033;-33
2022/05/27 03:02:48;;;;;;;9.70;2.95;;;14.00;99.90;;;;;;4969297;28;20048;-34
2022/05/27 03:05:18;;;;;;;11.32;2.78;;;14.10;99.90;;;;;;4976060;28;20514;-29
2022/05/27 03:08:13;;;;;;;14.43;3.33;;;14.10;99.90;;;;;;4975112;28;20035;-30
2022/05/27 03:11:08;;;;;;;9.35;2.50;;;14.10;99.90;;;;;;4973157;28;20027;-28
2022/05/27 03:14:15;;;;;;;11.23;2.50;;;14.10;99.90;;;;;;4975029;28;20493;-29
2022/05/27 03:16:43;;;;;;;;;;;14.00;99.90;;;;;;4975278;28;20035;-34
2022/05/27 03:19:33;;;;;;;12.68;3.00;;;14.10;99.90;;;;;;4974736;28;20294;-32
2022/05/27 03:22:17;;;;;;;17.95;3.33;;;14.00;99.90;;;;;;4975165;28;20034;-31
2022/05/27 03:25:10;;;;;;;11.07;2.90;;;14.00;99.90;;;;;;4973103;28;20122;-28
2022/05/27 03:28:16;;;;;;;12.50;2.83;;;14.00;99.90;;;;;;4973685;28;20034;-33
2022/05/27 03:30:47;;;;;;;12.32;2.50;;;14.00;99.90;;;;;;4967498;28;20039;-28
2022/05/27 03:33:27;;;;;;;17.42;2.85;;;14.00;99.90;;;;;;4973984;28;20066;-28
2022/05/27 03:36:03;;;;;;;6.55;2.60;;;14.00;99.90;;;;;;4973248;28;20073;-28
2022/05/27 03:38:59;;;;;;;13.05;3.17;;;14.00;99.90;;;;;;4974244;28;20034;-30
2022/05/27 03:41:33;;;;;;;12.38;2.92;;;14.10;99.90;;;;;;4974030;28;21888;-32
2022/05/27 03:43:59;;;;;;;9.85;3.28;;;14.00;99.90;;;;;;4975327;28;20034;-34
2022/05/27 03:46:35;;;;;;;9.38;3.38;;;14.00;99.90;;;;;;4973260;28;20506;-34
2022/05/27 03:49:01;;;;;;;8.27;2.55;;;14.00;99.90;;;;;;4974066;28;20118;-31
2022/05/27 03:51:30;;;;;;;16.90;3.45;;;14.10;99.90;;;;;;4971959;28;20244;-33
2022/05/27 03:54:05;;;;;;;17.58;3.40;;;14.00;99.90;;;;;;4974434;28;20100;-35
2022/05/27 03:56:35;;;;;;;14.93;3.83;;;14.00;99.90;;;;;;4975212;28;20034;-31
2022/05/27 03:59:02;;;;;;;12.93;4.35;;;14.00;99.90;;;;;;4975323;28;20391;-35
2022/05/27 04:01:30;;;;;;;15.33;3.33;;;14.10;99.90;;;;;;4972215;28;20031;-31
2022/05/27 04:03:57;;;;;;;8.32;2.85;;;14.10;99.90;;;;;;4971112;28;20321;-36
2022/05/27 04:06:23;;;;;;;13.45;2.67;;;14.10;99.90;;;;;;4972029;28;20027;-33
2022/05/27 04:08:48;;;;;;;9.15;2.83;;;14.20;99.90;;;;;;4974926;28;20102;-30
2022/05/27 04:11:14;;;;;;;11.27;2.83;;;14.20;99.90;;;;;;4972745;28;20042;-32
2022/05/27 04:13:40;;;;;;;16.60;3.15;;;14.30;99.90;;;;;;4974877;28;20506;-29
2022/05/27 04:16:05;;;;;;;9.90;2.53;;;14.30;99.90;;;;;;4973767;28;20035;-31
2022/05/27 04:18:31;;;;;;;11.35;3.05;;;14.30;99.90;;;;;;4974484;28;20038;-35
2022/05/27 04:20:56;;;;;;;11.63;3.13;;;14.30;99.90;;;;;;4971971;28;20027;-32
2022/05/27 04:23:22;;;;;;;6.80;2.22;;;14.40;99.90;;;;;;4973850;28;20037;-33
2022/05/27 04:25:49;;;;;;;7.28;2.63;;;14.40;99.90;;;;;;4972874;28;20034;-33
2022/05/27 04:28:15;;;;;;;8.63;3.45;;;14.40;99.90;;;;;;4971072;28;20546;-32
2022/05/27 04:30:41;;;;;;;8.70;2.63;;;14.40;99.90;;;;;;4973373;28;20031;-28
2022/05/27 04:33:08;;;;;;;11.27;2.50;;;14.50;99.90;;;;;;4972127;28;20039;-30
2022/05/27 04:35:34;;;;;;;5.83;1.57;;;14.50;99.90;;;;;;4974456;28;20034;-30
2022/05/27 04:38:00;;;;;;;5.78;2.15;;;14.50;99.90;;;;;;4973668;28;20101;-32
2022/05/27 04:40:26;;;;;;;6.63;2.63;;;14.50;99.90;;;;;;4974472;28;20027;-36
2022/05/27 04:42:51;;;;;;;5.70;1.90;;;14.50;99.90;;;;;;4973871;28;20081;-30
2022/05/27 04:45:19;;;;;;;5.78;2.00;;;14.60;99.90;;;;;;4973273;28;20471;-41
2022/05/27 04:47:45;;;;;;;;;;;14.60;99.90;;;;;;4971857;28;20031;-32
2022/05/27 04:50:11;;;;;;;7.78;1.60;;;14.60;99.90;;;;;;4972850;28;19910;-30
2022/05/27 04:52:37;;;;;;;12.77;3.15;;;14.70;99.90;;;;;;4974295;28;20050;-34
2022/05/27 04:55:07;;;;;;;10.98;2.83;;;14.70;99.90;;;;;;4973299;28;20039;-31
2022/05/27 04:57:51;;;;;;;4.35;1.88;;;14.70;99.90;;;;;;4973492;28;20026;-31
2022/05/27 05:00:23;;;;;;;9.00;1.70;;;14.70;99.90;;;;;;4974593;28;20018;-35
2022/05/27 05:02:49;;;;;;;5.55;2.00;;;14.70;99.90;;;;;;4973826;28;20030;-31
2022/05/27 05:05:18;;;;;;;8.82;1.70;;;14.80;99.90;;;;;;4978325;28;20082;-31
2022/05/27 05:07:46;;;;;;;6.85;1.70;;;14.80;99.90;;;;;;4976160;28;20038;-32
2022/05/27 05:10:14;;;;;;;12.13;2.13;;;14.90;99.90;;;;;;4973009;28;20498;-35
2022/05/27 05:12:40;;;;;;;8.43;2.28;;;14.80;99.90;;;;;;4976404;28;20498;-28
2022/05/27 05:15:07;;;;;;;9.27;1.80;;;14.90;99.90;;;;;;4978064;28;20038;-34
2022/05/27 05:17:33;;;;;;;8.57;1.90;;;14.90;99.90;;;;;;4977565;28;20475;-31
2022/05/27 05:19:58;;;;;;;7.43;1.60;;;14.90;99.90;;;;;;4977561;28;20050;-28
2022/05/27 05:22:24;;;;;;;7.60;2.10;;;14.80;99.90;;;;;;4974827;28;20027;-34
2022/05/27 05:24:53;;;;;;;6.65;1.35;;;14.80;99.90;;;;;;4979343;28;20479;-33
2022/05/27 05:27:21;;;;;;;7.40;1.63;;;14.80;99.90;;;;;;4975493;28;20030;-28
2022/05/27 05:29:46;;;;;;;9.93;1.65;;;14.80;99.90;;;;;;4977822;28;20075;-35
2022/05/27 05:32:12;;;;;;;8.90;1.63;;;14.80;99.90;;;;;;4977114;28;20022;-32
2022/05/27 05:34:38;;;;;;;2.97;1.50;;;14.80;99.90;;;;;;4975299;28;20106;-36
2022/05/27 05:37:04;;;;;;;8.65;1.30;;;14.90;99.90;;;;;;4976760;28;20090;-32
2022/05/27 05:39:29;;;;;;;8.88;1.55;;;14.90;99.90;;;;;;4971619;28;20026;-35
2022/05/27 05:42:00;;;;;;;5.95;1.52;;;15.00;99.90;;;;;;4975160;28;20479;-33
2022/05/27 05:44:27;;;;;;;10.40;2.40;;;14.90;99.90;;;;;;4977928;28;20047;-31
2022/05/27 05:46:53;;;;;;;8.85;1.40;;;14.80;99.90;;;;;;4975331;28;20065;-32
2022/05/27 05:49:19;;;;;;;12.60;1.88;;;14.80;99.90;;;;;;4975912;28;20375;-34
2022/05/27 05:51:44;;;;;;;6.72;1.23;;;14.90;99.90;;;;;;4975851;28;20030;-34
2022/05/27 05:54:10;;;;;;;22.90;2.05;;;15.00;99.90;;;;;;4977266;28;20034;-33
2022/05/27 05:56:35;;;;;;;5.05;1.33;;;15.00;99.90;;;;;;4976600;28;20516;-33
2022/05/27 05:59:01;;;;;;;6.25;1.60;;;14.90;99.90;;;;;;4976600;28;20074;-33
2022/05/27 06:01:27;;;;;;;9.18;1.42;;;14.90;99.90;;;;;;4975447;28;20019;-34
2022/05/27 06:03:53;;;;;;;10.95;1.83;;;14.90;99.90;;;;;;4972101;28;20031;-30
2022/05/27 06:06:19;;;;;;;3.55;1.33;;;14.90;99.90;;;;;;4974725;28;20487;-40
2022/05/27 06:08:44;;;;;;;8.52;1.27;;;14.90;99.90;;;;;;4968987;28;20047;-32
2022/05/27 06:11:10;;;;;;;6.40;1.38;;;14.90;99.90;;;;;;4974661;28;20031;-33
2022/05/27 06:13:37;;;;;;;8.30;1.35;;;14.90;99.90;;;;;;4974967;28;20182;-32
2022/05/27 06:16:04;;;;;;;7.35;2.00;;;14.90;99.90;;;;;;4976892;28;20565;-30
2022/05/27 06:18:29;;;;;;;11.32;1.50;;;15.00;99.90;;;;;;4975847;28;20034;-30
2022/05/27 06:20:55;;;;;;;6.40;1.77;;;15.10;99.90;;;;;;4976278;28;20475;-31
2022/05/27 06:23:22;;;;;;;11.90;1.30;;;15.10;99.90;;;;;;4972205;28;20114;-35
2022/05/27 06:25:56;;;;;;;6.78;1.10;;;15.10;99.90;;;;;;4975289;28;20391;-31
2022/05/27 06:34:25;;;;;;;6.68;1.52;;;15.70;99.90;;;;;;4971387;28;20045;-34
2022/05/27 06:37:04;;;;;;;8.68;1.52;;;15.70;99.90;;;;;;4975034;28;20031;-32
2022/05/27 06:39:32;;;;;;;10.70;1.60;;;15.80;99.90;;;;;;4973166;28;20102;-35
2022/05/27 06:41:58;;;;;;;5.32;1.50;;;15.70;99.90;;;;;;4974040;28;20114;-33
2022/05/27 06:44:24;;;;;;;7.30;1.48;;;15.50;99.90;;;;;;4971275;28;20110;-37
2022/05/27 06:46:51;;;;;;;6.43;1.73;;;15.50;99.90;;;;;;4975457;28;20035;-33
2022/05/27 06:49:17;;;;;;;8.60;1.27;;;15.60;99.90;;;;;;4971385;28;20023;-29
2022/05/27 06:51:43;;;;;;;9.48;1.92;;;15.70;99.90;;;;;;4967709;28;20097;-29
2022/05/27 06:54:09;;;;;;;8.68;1.40;;;15.80;99.90;;;;;;4969445;28;20035;-39
2022/05/27 06:56:36;;;;;;;14.57;1.60;;;15.80;99.90;;;;;;4978686;28;20030;-36
2022/05/27 06:59:03;;;;;;;11.73;1.40;;;15.80;99.90;;;;;;4971336;28;20479;-34
2022/05/27 07:01:29;;;;;;;9.18;1.60;;;15.80;99.90;;;;;;4974120;28;20314;-32
2022/05/27 07:03:55;;;;;;;6.65;2.33;;;15.60;99.90;;;;;;4973040;28;20495;-34
2022/05/27 07:06:23;;;;;;;6.82;1.60;;;15.60;99.90;;;;;;4969887;28;20033;-33
2022/05/27 07:08:48;;;;;;;7.38;1.98;;;15.60;99.90;;;;;;4972200;28;20089;-31
2022/05/27 07:11:14;;;;;;;7.80;1.77;;;15.90;99.90;;;;;;4968796;28;20023;-33
2022/05/27 07:13:39;;;;;;;10.73;1.63;;;16.20;99.90;;;;;;4975682;28;20026;-32
2022/05/27 07:16:06;;;;;;;9.30;1.65;;;16.00;99.90;;;;;;4972055;28;20065;-34
2022/05/27 07:18:31;;;;;;;14.23;1.88;;;15.90;99.90;;;;;;4974804;28;20399;-33
2022/05/27 07:21:05;;;;;;;13.02;1.38;;;15.60;99.90;;;;;;4976271;28;20027;-31
2022/05/27 07:23:31;;;;;;;8.30;1.55;;;15.40;99.90;;;;;;4971746;28;20475;-37
2022/05/27 07:25:57;;;;;;;6.50;1.30;;;15.20;99.90;;;;;;4973279;28;20027;-34
2022/05/27 07:28:23;;;;;;;7.07;1.42;;;15.10;99.90;;;;;;4973060;28;20037;-29
2022/05/27 07:30:49;;;;;;;7.20;1.25;;;15.30;99.90;;;;;;4967477;28;20035;-29
2022/05/27 07:33:15;;;;;;;6.90;2.33;;;15.40;99.90;;;;;;4967707;28;20033;-29
2022/05/27 07:35:41;;;;;;;7.80;1.92;;;15.30;99.90;;;;;;4965799;28;20360;-33
2022/05/27 07:38:07;;;;;;;7.85;1.52;;;15.30;99.90;;;;;;4963413;28;20030;-32
2022/05/27 07:40:32;;;;;;;9.30;1.92;;;15.40;99.90;;;;;;4971283;28;20030;-35
2022/05/27 07:42:58;;;;;;;8.07;1.40;;;15.50;99.90;;;;;;4974083;28;20109;-35
2022/05/27 07:45:27;;;;;;;4.32;1.60;;;15.50;99.90;;;;;;4969567;28;20031;-37
2022/05/27 07:47:56;;;;;;;3.10;1.33;;;15.80;99.90;;;;;;4966863;28;20062;-29
2022/05/27 07:50:23;;;;;;;7.15;1.02;;;15.90;99.90;;;;;;4966419;28;20023;-32
2022/05/27 07:52:49;;;;;;;9.80;2.03;;;15.80;99.90;;;;;;4973778;28;20491;-33
2022/05/27 07:55:16;;;;;;;10.35;2.72;;;15.90;99.90;;;;;;4974550;28;20026;-32
2022/05/27 07:57:47;;;;;;;8.35;1.30;;;15.80;99.90;;;;;;4974427;28;20030;-31
2022/05/27 08:00:20;;;;;;;10.60;1.80;;;15.70;99.90;;;;;;4974685;28;20027;-33
2022/05/27 08:02:46;;;;;;;11.20;1.85;;;15.60;99.90;;;;;;4974959;28;20034;-36
2022/05/27 08:05:15;;;;;;;20.83;6.50;;;15.50;99.90;;;;;;4975076;28;20027;-30
2022/05/27 08:07:41;;;;;;;5.13;1.30;;;15.30;99.90;;;;;;4971204;28;20023;-30
2022/05/27 08:10:08;;;;;;;6.60;1.70;;;15.30;99.90;;;;;;4973797;28;20551;-33
2022/05/27 08:12:33;;;;;;;10.02;1.65;;;15.30;99.90;;;;;;4973128;28;20122;-31
2022/05/27 08:14:59;;;;;;;12.07;1.25;;;15.70;99.90;;;;;;4970064;28;20117;-34
2022/05/27 08:17:25;;;;;;;8.93;1.40;;;15.90;99.90;;;;;;4973198;28;20019;-33
2022/05/27 08:19:52;;;;;;;12.98;2.05;;;16.00;99.90;;;;;;4973614;28;20130;-32
2022/05/27 08:22:18;;;;;;;20.38;2.17;;;16.40;99.90;;;;;;4973596;28;20030;-31
2022/05/27 08:24:44;;;;;;;9.70;1.73;;;16.60;99.90;;;;;;4971514;28;20513;-29
2022/05/27 08:27:10;;;;;;;11.18;2.10;;;16.30;99.90;;;;;;4973412;28;20031;-29
2022/05/27 08:29:36;;;;;;;6.55;1.55;;;16.30;99.90;;;;;;4972960;28;20484;-32
2022/05/27 08:32:04;;;;;;;12.18;1.40;;;16.30;99.90;;;;;;4972248;28;20037;-29
2022/05/27 08:40:34;;;;;;;10.43;2.47;;;16.10;99.90;;;;;;4973495;28;20105;-35
2022/05/27 08:43:04;;;;;;;8.50;1.45;;;15.60;99.90;;;;;;4972607;28;20509;-31
2022/05/27 08:45:54;;;;;;;7.40;1.60;;;15.40;99.90;;;;;;4968202;28;20027;-32
2022/05/27 08:48:22;;;;;;;12.85;2.17;;;15.40;99.90;;;;;;4972916;28;20041;-34
2022/05/27 08:50:52;;;;;;;7.13;1.65;;;15.80;99.90;;;;;;4971067;28;20454;-28
2022/05/27 08:53:37;;;;;;;7.25;1.42;;;16.20;99.90;;;;;;4968337;28;20031;-32
2022/05/27 08:59:26;;;;;;;9.38;1.48;;;16.50;99.90;;;;;;4965943;28;20050;-32
2022/05/27 09:01:57;;;;;;;8.35;2.85;;;16.50;99.70;;;;;;4966365;28;20038;-32
2022/05/27 09:04:40;;;;;;;12.60;1.92;;;16.40;99.80;;;;;;4971408;28;20506;-31
2022/05/27 09:07:30;;;;;;;9.80;1.55;;;16.30;99.90;;;;;;4974474;28;20026;-28
2022/05/27 09:09:57;;;;;;;8.38;1.27;;;16.30;99.90;;;;;;4967591;28;20030;-34
2022/05/27 09:12:41;;;;;;;5.35;1.27;;;16.20;99.90;;;;;;4967900;28;20030;-32
2022/05/27 09:15:32;;;;;;;14.00;1.77;;;16.00;99.90;;;;;;4965236;28;20038;-32
2022/05/27 09:18:35;;;;;;;11.90;1.88;;;15.90;99.90;;;;;;4965023;28;20081;-35
2022/05/27 09:21:03;;;;;;;7.18;1.77;;;16.00;99.90;;;;;;4968255;28;20077;-33
2022/05/27 09:24:10;;;;;;;10.75;1.67;;;16.10;99.90;;;;;;4964401;28;20031;-32
2022/05/27 09:26:42;;;;;;;;;;;15.90;99.90;;;;;;4937684;28;20495;-34
2022/05/27 09:29:33;;;;;;;5.38;1.40;;;15.70;99.90;;;;;;4964741;28;19910;-38
2022/05/27 09:32:15;;;;;;;11.05;2.35;;;16.10;99.90;;;;;;4978274;28;20035;-29
2022/05/27 09:34:43;;;;;;;14.98;2.33;;;16.60;99.90;;;;;;4967884;28;20023;-36
2022/05/27 09:37:18;;;;;;;11.30;2.78;;;16.50;99.90;;;;;;4970056;28;20029;-36
2022/05/27 09:39:43;;;;;;;15.27;2.28;;;16.20;99.90;;;;;;4972596;28;20468;-30
2022/05/27 09:42:24;;;;;;;13.80;1.40;;;15.70;99.90;;;;;;4973911;28;20070;-30
2022/05/27 09:44:55;;;;;;;9.32;1.67;;;15.70;99.90;;;;;;4973430;28;20044;-34
2022/05/27 09:47:22;;;;;;;6.70;1.92;;;16.10;99.90;;;;;;4975955;28;20031;-30
2022/05/27 09:49:58;;;;;;;10.27;1.90;;;16.40;99.90;;;;;;4977551;28;20058;-30
2022/05/27 09:52:25;;;;;;;19.35;2.60;;;16.50;99.90;;;;;;4976066;28;20031;-32
2022/05/27 09:54:55;;;;;;;8.38;1.90;;;16.50;99.90;;;;;;4980045;28;20542;-34
2022/05/27 09:57:30;;;;;;;16.25;2.58;;;16.90;99.90;;;;;;4976389;28;20074;-35
2022/05/27 10:00:01;;;;;;;5.85;1.50;;;17.20;99.50;;;;;;4976115;28;20109;-38
2022/05/27 10:02:26;;;;;;;13.82;2.30;;;17.40;99.40;;;;;;4976589;28;20025;-37
2022/05/27 10:04:58;;;;;;;10.52;1.90;;;17.00;99.90;;;;;;4975625;28;20039;-29
2022/05/27 10:07:26;;;;;;;14.45;2.45;;;16.90;99.90;;;;;;4975754;28;20029;-33
2022/05/27 10:09:52;;;;;;;8.63;2.30;;;17.10;99.90;;;;;;4975962;28;20491;-30
2022/05/27 10:12:33;;;;;;;8.77;1.95;;;17.50;99.90;;;;;;4976182;28;20038;-32
2022/05/27 10:14:58;;;;;;;11.15;3.03;;;17.70;99.10;;;;;;4972611;28;20463;-34
2022/05/27 10:17:36;;;;;;;15.00;2.13;;;17.40;99.50;;;;;;4966615;28;20027;-33
2022/05/27 10:20:40;;;;;;;9.48;2.15;;;17.00;99.90;;;;;;4967321;28;20050;-35
2022/05/27 10:23:09;;;;;;;8.18;2.17;;;17.10;99.90;;;;;;4968098;28;20145;-42
2022/05/27 10:25:38;;;;;;;9.85;2.45;;;17.40;99.90;;;;;;4968400;28;20549;-30
2022/05/27 10:28:05;;;;;;;12.85;2.75;;;17.00;99.90;;;;;;4967612;28;20746;-33
2022/05/27 10:30:39;;;;;;;12.73;1.98;;;16.40;99.90;;;;;;4965165;28;20483;-30
2022/05/27 10:33:22;;;;;;;7.13;1.95;;;16.20;99.90;;;;;;4972279;28;20767;-33
2022/05/27 10:35:52;;;;;;;8.93;1.48;;;16.40;99.90;;;;;;4970771;28;20062;-33
2022/05/27 10:38:18;;;;;;;9.15;1.95;;;16.30;99.90;;;;;;4976006;28;20483;-30
2022/05/27 10:40:51;;;;;;;10.73;2.30;;;15.90;99.90;;;;;;4969387;28;20033;-31
2022/05/27 10:43:44;;;;;;;12.05;2.47;;;15.90;99.90;;;;;;4966484;28;20027;-30
2022/05/27 10:46:15;;;;;;;10.32;1.83;;;16.00;99.90;;;;;;4967466;28;20034;-30
2022/05/27 10:48:53;;;;;;;14.60;3.83;;;16.50;99.90;;;;;;4967651;28;20022;-29
2022/05/27 10:51:27;;;;;;;11.95;1.73;;;16.80;99.90;;;;;;4966360;28;20396;-28
2022/05/27 10:54:12;;;;;;;11.07;1.88;;;16.90;99.90;;;;;;4966866;28;20030;-37
2022/05/27 10:56:42;;;;;;;9.02;1.65;;;17.20;99.90;;;;;;4964934;28;20093;-43
2022/05/27 11:02:19;;;;;;;13.27;2.55;;;17.40;99.90;;;;;;4967715;28;21213;-34
2022/05/27 11:04:54;;;;;;;12.85;2.17;;;18.00;99.90;;;;;;4966852;28;20035;-29
2022/05/27 11:07:44;;;;;;;11.10;1.98;;;17.70;99.60;;;;;;4965891;28;20023;-35
2022/05/27 11:10:35;;;;;;;13.00;2.00;;;17.40;99.90;;;;;;4966691;28;20391;-39
2022/05/27 11:16:21;;;;;;;10.95;2.20;;;17.90;99.90;;;;;;4965490;28;20502;-29
2022/05/27 11:19:08;;;;;;;13.30;2.45;;;17.80;98.80;;;;;;4967653;28;20030;-30
2022/05/27 11:21:43;;;;;;;9.82;1.80;;;17.40;98.60;;;;;;4965305;28;20045;-37
2022/05/27 11:24:35;;;;;;;17.52;2.22;;;16.80;99.80;;;;;;4966177;28;20139;-33
2022/05/27 11:27:14;;;;;;;10.30;1.88;;;17.00;99.90;;;;;;4965881;28;20070;-34
2022/05/27 11:30:18;;;;;;;14.43;2.50;;;17.10;98.40;;;;;;4966299;28;20061;-33
2022/05/27 11:32:55;;;;;;;18.50;3.20;;;16.80;98.40;;;;;;4964537;28;20272;-38
2022/05/27 11:35:27;;;;;;;;;;;16.90;98.90;;;;;;4966216;28;20038;-34
2022/05/27 11:38:07;;;;;;;12.20;2.35;;;17.40;99.00;;;;;;4966049;28;20012;-29
2022/05/27 11:40:36;;;;;;;10.05;1.50;;;17.50;97.70;;;;;;4965869;28;20027;-30
2022/05/27 11:43:07;;;;;;;10.48;1.48;;;17.80;97.70;;;;;;4965915;28;20050;-32
2022/05/27 11:45:34;;;;;;;12.25;1.50;;;18.00;98.10;;;;;;4965708;28;20034;-35
2022/05/27 11:48:08;;;;;;;6.03;2.03;;;18.00;96.80;;;;;;4966267;28;20111;-28
2022/05/27 11:50:36;;;;;;;2.60;1.02;;;18.20;97.80;;;;;;4965146;28;20109;-36
2022/05/27 11:53:33;;;;;;;5.30;1.25;;;18.40;97.10;;;;;;4965742;28;20033;-34
2022/05/27 11:56:17;;;;;;;8.17;1.43;;;18.00;96.80;;;;;;4965742;28;20492;-40
2022/05/27 11:58:51;;;;;;;9.45;1.95;;;17.60;97.50;;;;;;4966186;28;20034;-37
2022/05/27 12:01:26;;;;;;;10.68;1.85;;;17.60;98.20;;;;;;4965468;28;20478;-34
2022/05/27 12:03:58;;;;;;;9.70;1.55;;;17.90;99.00;;;;;;4965504;28;20023;-31
2022/05/27 12:06:40;;;;;;;12.80;2.05;;;17.80;98.10;;;;;;4965965;28;20034;-41
2022/05/27 12:09:09;;;;;;;11.77;1.45;;;17.00;98.90;;;;;;4964607;28;20062;-28
2022/05/27 12:11:48;;;;;;;9.90;1.60;;;16.20;99.50;;;;;;4965481;28;20463;-33
2022/05/27 12:14:37;;;;;;;9.50;1.70;;;15.50;99.90;;;;;;4965399;28;20487;-37
2022/05/27 12:17:09;;;;;;;5.55;1.17;;;15.80;99.90;;;;;;4966003;28;20485;-31
2022/05/27 12:19:39;;;;;;;10.38;1.50;;;16.20;99.90;;;;;;4964437;28;20117;-33
2022/05/27 12:22:15;;;;;;;5.32;1.33;;;16.70;99.70;;;;;;4965681;28;20110;-34
2022/05/27 12:24:51;;;;;;;6.38;1.60;;;17.00;98.40;;;;;;4968747;28;20045;-32
2022/05/27 12:27:19;;;;;;;7.32;1.92;;;16.80;99.30;;;;;;4973188;28;20022;-28
2022/05/27 12:29:47;;;;;;;14.18;1.30;;;16.60;98.40;;;;;;4974650;28;20023;-37
2022/05/27 12:32:14;;;;;;;6.80;1.60;;;16.80;98.90;;;;;;4972606;28;20045;-32
2022/05/27 12:34:49;;;;;;;8.85;1.33;;;16.80;98.00;;;;;;4974580;28;20034;-34
2022/05/27 12:37:43;;;;;;;19.10;1.65;;;16.60;98.80;;;;;;4974034;28;20475;-31
2022/05/27 12:40:18;;;;;;;6.40;1.67;;;16.80;98.80;;;;;;4967787;28;20505;-37
2022/05/27 12:42:44;;;;;;;9.65;1.58;;;16.90;98.20;;;;;;4973705;28;20030;-32
2022/05/27 12:45:27;;;;;;;10.75;1.50;;;16.80;98.30;;;;;;4972980;28;20097;-31
2022/05/27 12:47:54;;;;;;;12.52;2.25;;;16.20;98.60;;;;;;4971662;28;20530;-31
2022/05/27 12:50:30;;;;;;;6.97;1.85;;;16.00;99.40;;;;;;4974372;28;20031;-30
2022/05/27 12:52:58;;;;;;;7.28;1.27;;;15.90;99.90;;;;;;4973639;28;20039;-36
2022/05/27 13:01:42;;;;;;;6.97;1.30;;;15.90;99.90;;;;;;4973614;28;20081;-31
2022/05/27 13:04:27;;;;;;;8.73;1.42;;;15.50;99.90;;;;;;4969000;28;20038;-34
2022/05/27 13:07:05;;;;;;;10.88;1.50;;;15.30;99.90;;;;;;4972381;28;20042;-32
2022/05/27 13:09:42;;;;;;;5.50;1.60;;;15.00;99.90;;;;;;4973261;28;20031;-35
2022/05/27 13:12:12;;;;;;;11.48;1.85;;;15.00;99.90;;;;;;4955139;28;20106;-33
2022/05/27 13:14:45;;;;;;;14.23;2.55;;;15.40;99.90;;;;;;4959231;28;20042;-29
2022/05/27 13:17:34;;;;;;;8.93;1.73;;;15.50;99.90;;;;;;4974766;28;20118;-31
2022/05/27 13:20:23;;;;;;;11.15;1.58;;;15.40;99.90;;;;;;4972661;28;20483;-31
2022/05/27 13:23:10;;;;;;;10.68;1.70;;;15.40;99.90;;;;;;4978132;28;20045;-38
2022/05/27 13:25:39;;;;;;;9.15;1.55;;;15.60;99.90;;;;;;4974258;28;20041;-30
2022/05/27 13:28:10;;;;;;;9.18;1.80;;;15.60;99.90;;;;;;4976507;28;20487;-31
2022/05/27 13:31:11;;;;;;;8.98;1.48;;;15.70;99.90;;;;;;4979072;28;20030;-31
2022/05/27 13:33:52;;;;;;;6.50;1.60;;;16.00;99.90;;;;;;4977057;28;20507;-32
2022/05/27 13:36:21;;;;;;;8.40;2.10;;;16.20;99.90;;;;;;4958403;28;20035;-28
2022/05/27 13:39:01;;;;;;;14.02;1.63;;;16.60;99.90;;;;;;4970545;28;20458;-32
2022/05/27 13:41:32;;;;;;;13.15;2.50;;;17.00;99.90;;;;;;4967520;28;20030;-42
2022/05/27 13:43:58;;;;;;;10.52;1.77;;;16.70;99.90;;;;;;4971943;28;20023;-33